createdAt,value
2018-06-30T00:00:35.543Z,19.40
2018-06-30T00:01:41.516Z,19.37
2018-06-30T00:02:47.502Z,19.34
2018-06-30T00:03:53.459Z,19.32
2018-06-30T00:04:59.451Z,19.27
2018-06-30T00:06:05.446Z,19.23
2018-06-30T00:07:11.506Z,19.21
2018-06-30T00:08:17.512Z,19.16
2018-06-30T00:09:23.546Z,19.15
2018-06-30T00:10:30.902Z,19.11
2018-06-30T00:11:37.539Z,19.10
2018-06-30T00:12:43.596Z,19.09
2018-06-30T00:13:49.587Z,19.07
2018-06-30T00:14:55.608Z,19.06
2018-06-30T00:16:01.610Z,19.03
2018-06-30T00:17:07.656Z,19.01
2018-06-30T00:18:13.661Z,18.99
2018-06-30T00:19:19.696Z,18.94
2018-06-30T00:20:25.699Z,18.92
2018-06-30T00:21:31.671Z,18.90
2018-06-30T00:22:38.474Z,18.88
2018-06-30T00:23:44.440Z,18.84
2018-06-30T00:24:50.353Z,18.84
2018-06-30T00:25:56.365Z,18.81
2018-06-30T00:27:07.551Z,18.77
2018-06-30T00:28:13.505Z,18.75
2018-06-30T00:29:19.447Z,18.75
2018-06-30T00:30:27.022Z,18.71
2018-06-30T00:31:33.064Z,18.69
2018-06-30T00:32:39.050Z,18.68
2018-06-30T00:33:45.028Z,18.67
2018-06-30T00:34:50.987Z,18.64
2018-06-30T00:35:57.322Z,18.65
2018-06-30T00:37:03.278Z,18.63
2018-06-30T00:38:09.318Z,18.62
2018-06-30T00:39:15.725Z,18.58
2018-06-30T00:40:21.974Z,18.55
2018-06-30T00:41:27.908Z,18.54
2018-06-30T00:42:33.829Z,18.51
2018-06-30T00:43:39.786Z,18.50
2018-06-30T00:44:46.112Z,18.48
2018-06-30T00:45:52.735Z,18.48
2018-06-30T00:46:58.723Z,18.43
2018-06-30T00:48:04.799Z,18.44
2018-06-30T00:49:10.779Z,18.43
2018-06-30T00:50:16.754Z,18.40
2018-06-30T00:51:22.740Z,18.37
2018-06-30T00:52:28.711Z,18.34
2018-06-30T00:53:34.726Z,18.34
2018-06-30T00:54:40.806Z,18.31
2018-06-30T00:55:46.759Z,18.27
2018-06-30T00:56:52.722Z,18.28
2018-06-30T00:57:58.657Z,18.26
2018-06-30T00:59:04.636Z,18.23
2018-06-30T01:00:10.275Z,18.21
2018-06-30T01:01:16.207Z,18.19
2018-06-30T01:02:22.237Z,18.18
2018-06-30T01:03:28.177Z,18.14
2018-06-30T01:04:34.178Z,18.13
2018-06-30T01:05:40.372Z,18.11
2018-06-30T01:06:46.624Z,18.08
2018-06-30T01:07:52.599Z,18.08
2018-06-30T01:08:58.561Z,18.08
2018-06-30T01:10:04.547Z,18.06
2018-06-30T01:11:10.551Z,18.04
2018-06-30T01:12:16.530Z,18.03
2018-06-30T01:13:22.129Z,18.00
2018-06-30T01:14:27.906Z,17.98
2018-06-30T01:15:33.767Z,17.97
2018-06-30T01:16:39.947Z,17.96
2018-06-30T01:17:45.927Z,17.92
2018-06-30T01:18:51.517Z,17.92
2018-06-30T01:19:57.409Z,17.89
2018-06-30T01:21:03.479Z,17.84
2018-06-30T01:22:09.728Z,17.82
2018-06-30T01:23:16.079Z,17.81
2018-06-30T01:24:22.107Z,17.79
2018-06-30T01:25:28.121Z,17.76
2018-06-30T01:26:34.043Z,17.75
2018-06-30T01:27:40.043Z,17.70
2018-06-30T01:28:45.993Z,17.68
2018-06-30T01:29:51.930Z,17.67
2018-06-30T01:30:58.173Z,17.60
2018-06-30T01:32:04.182Z,17.59
2018-06-30T01:33:10.182Z,17.58
2018-06-30T01:34:16.574Z,17.56
2018-06-30T01:35:22.311Z,17.56
2018-06-30T01:36:28.209Z,17.53
2018-06-30T01:37:34.174Z,17.50
2018-06-30T01:38:40.244Z,17.44
2018-06-30T01:39:45.941Z,17.47
2018-06-30T01:40:51.817Z,17.46
2018-06-30T01:41:58.141Z,17.44
2018-06-30T01:43:04.139Z,17.44
2018-06-30T01:44:10.443Z,17.44
2018-06-30T01:45:16.432Z,17.41
2018-06-30T01:46:22.059Z,17.39
2018-06-30T01:47:27.932Z,17.34
2018-06-30T01:48:33.803Z,17.31
2018-06-30T01:49:39.661Z,17.29
2018-06-30T01:50:45.623Z,17.29
2018-06-30T01:51:51.583Z,17.28
2018-06-30T01:52:57.503Z,17.26
2018-06-30T01:54:03.500Z,17.22
2018-06-30T01:55:09.139Z,17.18
2018-06-30T01:56:15.026Z,17.19
2018-06-30T01:57:21.183Z,17.17
2018-06-30T01:58:27.116Z,17.16
2018-06-30T01:59:33.055Z,17.13
2018-06-30T02:00:39.106Z,17.09
2018-06-30T02:01:45.051Z,17.07
2018-06-30T02:02:50.981Z,17.04
2018-06-30T02:03:57.388Z,17.04
2018-06-30T02:05:03.469Z,17.02
2018-06-30T02:06:09.125Z,17.03
2018-06-30T02:07:14.987Z,16.95
2018-06-30T02:08:20.941Z,16.94
2018-06-30T02:09:26.909Z,16.93
2018-06-30T02:10:32.882Z,16.93
2018-06-30T02:11:39.078Z,16.92
2018-06-30T02:12:45.027Z,16.88
2018-06-30T02:13:51.006Z,16.88
2018-06-30T02:14:56.765Z,16.87
2018-06-30T02:16:02.771Z,16.85
2018-06-30T02:17:08.747Z,16.81
2018-06-30T02:18:14.703Z,16.78
2018-06-30T02:19:20.677Z,16.77
2018-06-30T02:20:26.906Z,16.79
2018-06-30T02:21:32.939Z,16.75
2018-06-30T02:22:39.050Z,16.73
2018-06-30T02:23:44.990Z,16.69
2018-06-30T02:24:50.937Z,16.69
2018-06-30T02:25:56.945Z,16.69
2018-06-30T02:27:02.955Z,16.65
2018-06-30T02:28:08.995Z,16.63
2018-06-30T02:29:14.790Z,16.60
2018-06-30T02:30:20.743Z,16.57
2018-06-30T02:31:27.027Z,16.56
2018-06-30T02:32:32.971Z,16.54
2018-06-30T02:33:38.974Z,16.49
2018-06-30T02:34:44.929Z,16.47
2018-06-30T02:35:50.876Z,16.46
2018-06-30T02:36:56.922Z,16.43
2018-06-30T02:38:02.924Z,16.36
2018-06-30T02:39:10.120Z,16.35
2018-06-30T02:40:16.051Z,16.33
2018-06-30T02:41:22.114Z,16.31
2018-06-30T02:42:28.094Z,16.30
2018-06-30T02:43:34.060Z,16.30
2018-06-30T02:44:40.028Z,16.27
2018-06-30T02:45:46.012Z,16.23
2018-06-30T02:46:51.979Z,16.19
2018-06-30T02:47:57.934Z,16.17
2018-06-30T02:49:03.726Z,16.16
2018-06-30T02:50:09.818Z,16.14
2018-06-30T02:51:15.786Z,16.15
2018-06-30T02:52:21.786Z,16.11
2018-06-30T02:53:27.890Z,16.09
2018-06-30T02:54:33.921Z,16.10
2018-06-30T02:55:39.906Z,16.08
2018-06-30T02:56:45.871Z,16.07
2018-06-30T02:57:51.843Z,16.06
2018-06-30T02:58:57.800Z,16.05
2018-06-30T03:00:03.449Z,16.03
2018-06-30T03:01:09.586Z,16.00
2018-06-30T03:02:15.635Z,15.99
2018-06-30T03:03:21.651Z,15.98
2018-06-30T03:04:27.635Z,15.94
2018-06-30T03:05:33.583Z,15.90
2018-06-30T03:06:39.565Z,15.91
2018-06-30T03:07:45.494Z,15.92
2018-06-30T03:08:51.431Z,15.91
2018-06-30T03:09:57.376Z,15.90
2018-06-30T03:11:03.360Z,15.87
2018-06-30T03:12:09.592Z,15.87
2018-06-30T03:13:15.549Z,15.84
2018-06-30T03:14:21.894Z,15.84
2018-06-30T03:15:27.858Z,15.80
2018-06-30T03:16:34.035Z,15.80
2018-06-30T03:17:40.120Z,15.79
2018-06-30T03:18:47.804Z,15.79
2018-06-30T03:19:53.751Z,15.75
2018-06-30T03:20:59.791Z,15.74
2018-06-30T03:22:05.843Z,15.70
2018-06-30T03:23:11.827Z,15.71
2018-06-30T03:24:17.821Z,15.66
2018-06-30T03:25:23.843Z,15.65
2018-06-30T03:26:29.825Z,15.63
2018-06-30T03:27:35.778Z,15.65
2018-06-30T03:28:41.791Z,15.65
2018-06-30T03:29:47.791Z,15.65
2018-06-30T03:30:53.775Z,15.63
2018-06-30T03:31:59.762Z,15.64
2018-06-30T03:33:06.246Z,15.64
2018-06-30T03:34:12.207Z,15.66
2018-06-30T03:35:18.271Z,15.63
2018-06-30T03:36:24.220Z,15.63
2018-06-30T03:37:30.204Z,15.63
2018-06-30T03:38:36.133Z,15.61
2018-06-30T03:39:42.311Z,15.60
2018-06-30T03:40:48.262Z,15.62
2018-06-30T03:41:54.262Z,15.62
2018-06-30T03:43:00.144Z,15.57
2018-06-30T03:44:06.591Z,15.54
2018-06-30T03:45:12.205Z,15.56
2018-06-30T03:46:18.108Z,15.56
2018-06-30T03:47:24.243Z,15.56
2018-06-30T03:48:30.191Z,15.54
2018-06-30T03:49:36.111Z,15.55
2018-06-30T03:50:42.082Z,15.52
2018-06-30T03:51:48.390Z,15.52
2018-06-30T03:52:54.402Z,15.50
2018-06-30T03:54:00.923Z,15.49
2018-06-30T03:55:07.233Z,15.50
2018-06-30T03:56:13.197Z,15.49
2018-06-30T03:57:19.137Z,15.49
2018-06-30T03:58:25.187Z,15.49
2018-06-30T03:59:31.161Z,15.44
2018-06-30T04:00:37.111Z,15.47
2018-06-30T04:01:43.465Z,15.49
2018-06-30T04:02:49.072Z,15.50
2018-06-30T04:03:54.964Z,15.48
2018-06-30T04:05:00.895Z,15.50
2018-06-30T04:06:07.059Z,15.54
2018-06-30T04:07:12.997Z,15.54
2018-06-30T04:08:19.145Z,15.56
2018-06-30T04:09:25.062Z,15.56
2018-06-30T04:10:31.017Z,15.56
2018-06-30T04:11:37.151Z,15.56
2018-06-30T04:12:43.125Z,15.56
2018-06-30T04:13:49.062Z,15.58
2018-06-30T04:14:55.109Z,15.58
2018-06-30T04:16:01.127Z,15.59
2018-06-30T04:17:07.458Z,15.58
2018-06-30T04:18:13.622Z,15.58
2018-06-30T04:19:19.561Z,15.59
2018-06-30T04:20:26.025Z,15.57
2018-06-30T04:21:32.270Z,15.57
2018-06-30T04:22:38.752Z,15.56
2018-06-30T04:23:45.035Z,15.58
2018-06-30T04:24:51.020Z,15.58
2018-06-30T04:25:56.938Z,15.61
2018-06-30T04:27:02.903Z,15.63
2018-06-30T04:28:08.837Z,15.63
2018-06-30T04:29:15.011Z,15.64
2018-06-30T04:30:21.036Z,15.66
2018-06-30T04:31:27.020Z,15.63
2018-06-30T04:32:32.960Z,15.64
2018-06-30T04:33:39.103Z,15.61
2018-06-30T04:34:45.428Z,15.64
2018-06-30T04:35:51.423Z,15.63
2018-06-30T04:36:57.349Z,15.62
2018-06-30T04:38:03.295Z,15.64
2018-06-30T04:39:10.672Z,15.58
2018-06-30T04:40:16.644Z,15.61
2018-06-30T04:41:22.611Z,15.60
2018-06-30T04:42:28.666Z,15.65
2018-06-30T04:43:34.604Z,15.65
2018-06-30T04:44:40.810Z,15.68
2018-06-30T04:45:46.804Z,15.70
2018-06-30T04:46:52.758Z,15.71
2018-06-30T04:47:58.857Z,15.74
2018-06-30T04:49:04.947Z,15.72
2018-06-30T04:50:11.255Z,15.71
2018-06-30T04:51:17.262Z,15.76
2018-06-30T04:52:23.272Z,15.78
2018-06-30T04:53:29.205Z,15.79
2018-06-30T04:54:35.525Z,15.80
2018-06-30T04:55:41.617Z,15.80
2018-06-30T04:56:47.844Z,15.83
2018-06-30T04:57:53.862Z,15.82
2018-06-30T04:58:59.458Z,15.79
2018-06-30T05:00:05.918Z,15.76
2018-06-30T05:01:11.895Z,15.80
2018-06-30T05:02:17.880Z,15.82
2018-06-30T05:03:23.836Z,15.83
2018-06-30T05:04:29.787Z,15.87
2018-06-30T05:05:35.719Z,15.89
2018-06-30T05:06:41.665Z,15.87
2018-06-30T05:07:47.629Z,15.88
2018-06-30T05:08:53.727Z,15.87
2018-06-30T05:09:59.604Z,15.90
2018-06-30T05:11:05.664Z,15.91
2018-06-30T05:12:11.670Z,15.97
2018-06-30T05:13:17.309Z,16.03
2018-06-30T05:14:23.387Z,16.06
2018-06-30T05:15:29.463Z,16.09
2018-06-30T05:16:35.496Z,16.12
2018-06-30T05:17:41.827Z,16.15
2018-06-30T05:18:48.253Z,16.17
2018-06-30T05:19:54.243Z,16.18
2018-06-30T05:21:00.237Z,16.23
2018-06-30T05:22:06.374Z,16.25
2018-06-30T05:23:12.327Z,16.30
2018-06-30T05:24:18.320Z,16.32
2018-06-30T05:25:24.276Z,16.38
2018-06-30T05:26:30.346Z,16.44
2018-06-30T05:27:36.355Z,16.47
2018-06-30T05:28:42.341Z,16.50
2018-06-30T05:29:48.326Z,16.52
2018-06-30T05:30:54.291Z,16.55
2018-06-30T05:32:00.585Z,16.57
2018-06-30T05:33:06.963Z,16.63
2018-06-30T05:34:13.481Z,16.66
2018-06-30T05:35:19.450Z,16.62
2018-06-30T05:36:25.410Z,16.63
2018-06-30T05:37:31.344Z,16.65
2018-06-30T05:38:37.301Z,16.65
2018-06-30T05:39:43.541Z,16.68
2018-06-30T05:40:49.710Z,16.74
2018-06-30T05:41:55.642Z,16.78
2018-06-30T05:43:01.693Z,16.84
2018-06-30T05:44:11.461Z,16.87
2018-06-30T05:45:18.285Z,16.91
2018-06-30T05:46:25.909Z,16.99
2018-06-30T05:47:33.020Z,17.02
2018-06-30T05:48:39.046Z,17.03
2018-06-30T05:49:45.600Z,17.07
2018-06-30T05:50:51.612Z,17.09
2018-06-30T05:51:57.932Z,17.12
2018-06-30T05:53:03.553Z,17.18
2018-06-30T05:54:09.384Z,17.23
2018-06-30T05:55:15.451Z,17.32
2018-06-30T05:56:21.404Z,17.55
2018-06-30T05:57:27.028Z,18.04
2018-06-30T05:58:32.927Z,18.73
2018-06-30T05:59:38.869Z,19.45
2018-06-30T06:00:45.179Z,20.07
2018-06-30T06:01:51.115Z,20.47
2018-06-30T06:02:57.555Z,20.59
2018-06-30T06:04:03.562Z,20.79
2018-06-30T06:05:09.497Z,21.11
2018-06-30T06:06:15.456Z,21.58
2018-06-30T06:07:21.486Z,22.13
2018-06-30T06:08:27.468Z,22.74
2018-06-30T06:09:33.389Z,23.34
2018-06-30T06:10:39.370Z,23.85
2018-06-30T06:11:45.318Z,24.47
2018-06-30T06:12:51.311Z,24.96
2018-06-30T06:13:57.266Z,25.57
2018-06-30T06:15:03.231Z,26.18
2018-06-30T06:16:09.274Z,26.66
2018-06-30T06:17:15.219Z,27.06
2018-06-30T06:18:21.242Z,27.10
2018-06-30T06:19:26.844Z,27.14
2018-06-30T06:20:33.048Z,27.07
2018-06-30T06:21:38.985Z,27.01
2018-06-30T06:22:44.943Z,27.22
2018-06-30T06:23:50.919Z,27.48
2018-06-30T06:24:56.901Z,28.01
2018-06-30T06:26:02.878Z,28.20
2018-06-30T06:27:09.111Z,28.24
2018-06-30T06:28:15.047Z,28.24
2018-06-30T06:29:21.022Z,28.44
2018-06-30T06:30:27.007Z,28.61
2018-06-30T06:31:33.317Z,28.20
2018-06-30T06:32:39.631Z,28.16
2018-06-30T06:33:45.782Z,27.61
2018-06-30T06:34:51.690Z,27.77
2018-06-30T06:35:57.654Z,27.77
2018-06-30T06:37:03.654Z,27.74
2018-06-30T06:38:09.943Z,27.87
2018-06-30T06:39:15.899Z,27.64
2018-06-30T06:40:21.899Z,27.81
2018-06-30T06:41:27.672Z,28.13
2018-06-30T06:42:33.654Z,28.30
2018-06-30T06:43:39.582Z,28.11
2018-06-30T06:44:45.532Z,28.24
2018-06-30T06:45:51.686Z,28.35
2018-06-30T06:46:58.024Z,28.34
2018-06-30T06:48:04.144Z,28.25
2018-06-30T06:49:10.072Z,28.30
2018-06-30T06:50:16.016Z,28.37
2018-06-30T06:51:21.975Z,28.61
2018-06-30T06:52:27.985Z,29.06
2018-06-30T06:53:33.951Z,29.32
2018-06-30T06:54:40.008Z,29.79
2018-06-30T06:55:46.352Z,29.78
2018-06-30T06:56:52.323Z,29.76
2018-06-30T06:57:58.439Z,29.77
2018-06-30T06:59:04.511Z,29.75
2018-06-30T07:00:10.469Z,29.38
2018-06-30T07:01:16.651Z,29.24
2018-06-30T07:02:22.591Z,29.29
2018-06-30T07:03:28.535Z,29.36
2018-06-30T07:04:34.530Z,29.72
2018-06-30T07:05:40.707Z,29.85
2018-06-30T07:06:46.690Z,29.85
2018-06-30T07:07:52.628Z,29.78
2018-06-30T07:08:58.591Z,29.91
2018-06-30T07:10:04.690Z,30.03
2018-06-30T07:11:10.681Z,29.67
2018-06-30T07:12:16.622Z,29.64
2018-06-30T07:13:22.618Z,29.45
2018-06-30T07:14:28.270Z,29.84
2018-06-30T07:15:34.155Z,29.88
2018-06-30T07:16:40.116Z,30.04
2018-06-30T07:17:46.580Z,30.35
2018-06-30T07:18:53.248Z,30.41
2018-06-30T07:19:59.623Z,30.58
2018-06-30T07:21:05.296Z,30.51
2018-06-30T07:22:11.632Z,30.91
2018-06-30T07:23:17.624Z,31.32
2018-06-30T07:24:23.595Z,31.78
2018-06-30T07:25:29.644Z,31.83
2018-06-30T07:26:35.791Z,31.63
2018-06-30T07:27:42.212Z,32.08
2018-06-30T07:28:48.501Z,32.18
2018-06-30T07:29:54.410Z,32.56
2018-06-30T07:31:00.436Z,33.10
2018-06-30T07:32:06.413Z,33.16
2018-06-30T07:33:12.366Z,32.96
2018-06-30T07:34:18.275Z,33.04
2018-06-30T07:35:24.261Z,32.65
2018-06-30T07:36:30.214Z,32.62
2018-06-30T07:37:36.263Z,32.75
2018-06-30T07:38:42.387Z,33.25
2018-06-30T07:39:48.282Z,33.33
2018-06-30T07:40:54.236Z,33.36
2018-06-30T07:42:00.201Z,33.77
2018-06-30T07:43:06.648Z,33.92
2018-06-30T07:44:12.590Z,33.77
2018-06-30T07:45:18.209Z,33.56
2018-06-30T07:46:24.290Z,33.32
2018-06-30T07:47:30.864Z,32.84
2018-06-30T07:48:37.172Z,32.87
2018-06-30T07:49:43.126Z,32.67
2018-06-30T07:50:49.135Z,32.96
2018-06-30T07:51:55.298Z,32.89
2018-06-30T07:53:01.688Z,33.23
2018-06-30T07:54:07.673Z,33.28
2018-06-30T07:55:13.601Z,33.38
2018-06-30T07:56:19.565Z,33.40
2018-06-30T07:57:25.518Z,33.54
2018-06-30T07:58:31.471Z,33.52
2018-06-30T07:59:37.707Z,33.55
2018-06-30T08:00:43.635Z,33.46
2018-06-30T08:01:49.599Z,33.26
2018-06-30T08:02:55.618Z,33.30
2018-06-30T08:04:01.591Z,33.24
2018-06-30T08:05:07.565Z,33.08
2018-06-30T08:06:13.502Z,32.65
2018-06-30T08:07:19.442Z,32.39
2018-06-30T08:08:25.706Z,32.42
2018-06-30T08:09:31.685Z,32.44
2018-06-30T08:10:37.587Z,32.22
2018-06-30T08:11:43.531Z,32.27
2018-06-30T08:12:49.534Z,32.52
2018-06-30T08:13:55.575Z,32.92
2018-06-30T08:15:01.610Z,33.52
2018-06-30T08:16:07.921Z,33.87
2018-06-30T08:17:13.833Z,34.09
2018-06-30T08:18:19.762Z,34.28
2018-06-30T08:19:25.787Z,34.62
2018-06-30T08:20:31.767Z,34.98
2018-06-30T08:21:37.362Z,35.41
2018-06-30T08:22:43.274Z,35.53
2018-06-30T08:23:49.594Z,35.50
2018-06-30T08:24:55.922Z,35.62
2018-06-30T08:26:01.906Z,35.55
2018-06-30T08:27:07.862Z,35.11
2018-06-30T08:28:13.824Z,34.54
2018-06-30T08:29:19.868Z,34.47
2018-06-30T08:30:25.808Z,34.55
2018-06-30T08:31:31.756Z,34.58
2018-06-30T08:32:37.747Z,35.04
2018-06-30T08:33:43.723Z,34.61
2018-06-30T08:34:49.662Z,34.08
2018-06-30T08:35:55.578Z,33.39
2018-06-30T08:37:01.531Z,33.15
2018-06-30T08:38:07.535Z,33.11
2018-06-30T08:39:14.105Z,32.73
2018-06-30T08:40:20.000Z,32.58
2018-06-30T08:41:26.299Z,32.74
2018-06-30T08:42:32.252Z,32.85
2018-06-30T08:43:38.335Z,33.55
2018-06-30T08:44:44.274Z,33.80
2018-06-30T08:45:50.227Z,34.13
2018-06-30T08:46:56.611Z,34.21
2018-06-30T08:48:02.591Z,34.22
2018-06-30T08:49:09.792Z,33.95
2018-06-30T08:50:15.796Z,33.56
2018-06-30T08:51:21.722Z,33.16
2018-06-30T08:52:27.655Z,33.13
2018-06-30T08:53:33.614Z,32.81
2018-06-30T08:54:39.536Z,32.61
2018-06-30T08:55:45.622Z,32.63
2018-06-30T08:56:51.707Z,32.72
2018-06-30T08:57:57.658Z,32.85
2018-06-30T08:59:03.610Z,33.04
2018-06-30T09:00:09.587Z,33.27
2018-06-30T09:01:15.492Z,33.50
2018-06-30T09:02:21.709Z,33.54
2018-06-30T09:03:27.644Z,33.91
2018-06-30T09:04:33.619Z,33.93
2018-06-30T09:05:39.212Z,33.71
2018-06-30T09:06:45.107Z,34.25
2018-06-30T09:07:51.047Z,34.72
2018-06-30T09:08:56.988Z,35.36
2018-06-30T09:10:03.486Z,35.85
2018-06-30T09:11:09.509Z,35.19
2018-06-30T09:12:15.504Z,35.14
2018-06-30T09:13:21.605Z,34.52
2018-06-30T09:14:27.531Z,33.85
2018-06-30T09:15:33.179Z,33.66
2018-06-30T09:16:39.457Z,33.90
2018-06-30T09:17:45.680Z,34.00
2018-06-30T09:18:51.642Z,34.06
2018-06-30T09:19:57.989Z,34.34
2018-06-30T09:21:04.002Z,34.41
2018-06-30T09:22:09.867Z,34.23
2018-06-30T09:23:15.820Z,34.86
2018-06-30T09:24:21.497Z,35.47
2018-06-30T09:25:27.711Z,35.38
2018-06-30T09:26:33.338Z,35.82
2018-06-30T09:27:39.180Z,35.64
2018-06-30T09:28:45.112Z,35.85
2018-06-30T09:29:51.083Z,35.95
2018-06-30T09:30:57.003Z,36.01
2018-06-30T09:32:03.230Z,36.26
2018-06-30T09:33:09.269Z,36.27
2018-06-30T09:34:14.961Z,36.30
2018-06-30T09:35:20.653Z,36.55
2018-06-30T09:36:25.996Z,36.33
2018-06-30T09:37:31.630Z,36.52
2018-06-30T09:38:37.664Z,36.31
2018-06-30T09:39:43.538Z,36.12
2018-06-30T09:40:49.595Z,36.21
2018-06-30T09:41:55.512Z,36.03
2018-06-30T09:43:01.235Z,36.24
2018-06-30T09:44:07.494Z,36.29
2018-06-30T09:45:13.541Z,35.92
2018-06-30T09:46:19.211Z,35.33
2018-06-30T09:47:25.127Z,35.10
2018-06-30T09:48:30.939Z,34.52
2018-06-30T09:49:36.900Z,34.23
2018-06-30T09:50:42.878Z,34.54
2018-06-30T09:51:48.845Z,34.70
2018-06-30T09:52:55.168Z,34.97
2018-06-30T09:54:01.239Z,35.27
2018-06-30T09:55:10.217Z,35.62
2018-06-30T09:56:16.171Z,35.82
2018-06-30T09:57:22.127Z,35.55
2018-06-30T09:58:28.435Z,35.79
2018-06-30T09:59:34.419Z,35.55
2018-06-30T10:00:45.560Z,35.55
2018-06-30T10:01:51.196Z,35.44
2018-06-30T10:02:57.041Z,34.86
2018-06-30T10:04:02.959Z,34.62
2018-06-30T10:05:08.913Z,34.19
2018-06-30T10:06:14.863Z,34.06
2018-06-30T10:07:20.990Z,34.03
2018-06-30T10:08:26.913Z,34.28
2018-06-30T10:09:32.921Z,33.94
2018-06-30T10:10:38.902Z,33.51
2018-06-30T10:11:45.489Z,33.32
2018-06-30T10:12:51.484Z,32.83
2018-06-30T10:13:57.150Z,32.51
2018-06-30T10:15:03.021Z,32.33
2018-06-30T10:16:09.040Z,32.22
2018-06-30T10:17:15.354Z,32.44
2018-06-30T10:18:21.267Z,32.22
2018-06-30T10:19:27.265Z,32.25
2018-06-30T10:20:33.379Z,32.09
2018-06-30T10:21:39.503Z,32.02
2018-06-30T10:22:45.720Z,32.19
2018-06-30T10:23:51.644Z,32.35
2018-06-30T10:24:57.600Z,32.17
2018-06-30T10:26:03.834Z,31.87
2018-06-30T10:27:09.828Z,31.87
2018-06-30T10:28:15.804Z,31.37
2018-06-30T10:29:21.751Z,31.32
2018-06-30T10:30:28.234Z,31.12
2018-06-30T10:31:34.201Z,31.22
2018-06-30T10:32:40.194Z,31.26
2018-06-30T10:33:46.103Z,30.88
2018-06-30T10:34:52.090Z,30.47
2018-06-30T10:35:57.996Z,30.13
2018-06-30T10:37:03.662Z,29.86
2018-06-30T10:38:10.258Z,29.59
2018-06-30T10:39:16.207Z,29.19
2018-06-30T10:40:22.136Z,28.86
2018-06-30T10:41:28.059Z,28.78
2018-06-30T10:42:34.039Z,28.56
2018-06-30T10:43:40.082Z,28.33
2018-06-30T10:44:46.075Z,28.27
2018-06-30T10:45:52.068Z,28.31
2018-06-30T10:46:58.011Z,28.22
2018-06-30T10:48:03.971Z,27.48
2018-06-30T10:49:10.302Z,27.31
2018-06-30T10:50:16.256Z,27.13
2018-06-30T10:51:22.190Z,27.02
2018-06-30T10:52:28.111Z,26.86
2018-06-30T10:53:34.067Z,26.82
2018-06-30T10:54:40.007Z,26.58
2018-06-30T10:55:46.043Z,26.49
2018-06-30T10:56:52.062Z,26.39
2018-06-30T10:57:58.014Z,26.24
2018-06-30T10:59:03.650Z,25.92
2018-06-30T11:00:09.615Z,25.61
2018-06-30T11:01:15.571Z,25.53
2018-06-30T11:02:21.564Z,25.52
2018-06-30T11:03:27.495Z,25.48
2018-06-30T11:04:33.423Z,25.50
2018-06-30T11:05:39.406Z,25.45
2018-06-30T11:06:45.394Z,25.29
2018-06-30T11:07:51.329Z,25.30
2018-06-30T11:08:57.386Z,25.26
2018-06-30T11:10:03.153Z,25.24
2018-06-30T11:11:09.046Z,25.17
2018-06-30T11:12:15.358Z,25.08
2018-06-30T11:13:21.284Z,24.95
2018-06-30T11:14:27.275Z,24.96
2018-06-30T11:15:33.557Z,24.92
2018-06-30T11:16:39.595Z,24.80
2018-06-30T11:17:45.575Z,24.66
2018-06-30T11:18:51.845Z,24.55
2018-06-30T11:19:58.172Z,24.59
2018-06-30T11:21:04.152Z,24.56
2018-06-30T11:22:10.211Z,24.51
2018-06-30T11:23:16.189Z,24.57
2018-06-30T11:24:22.408Z,24.52
2018-06-30T11:25:28.386Z,24.40
2018-06-30T11:26:34.705Z,24.26
2018-06-30T11:27:40.727Z,24.14
2018-06-30T11:28:46.747Z,24.12
2018-06-30T11:29:52.717Z,24.16
2018-06-30T11:30:58.618Z,24.16
2018-06-30T11:32:04.610Z,24.13
2018-06-30T11:33:10.558Z,24.05
2018-06-30T11:34:16.492Z,23.96
2018-06-30T11:35:22.138Z,23.91
2018-06-30T11:36:28.014Z,23.92
2018-06-30T11:37:34.025Z,23.95
2018-06-30T11:38:40.382Z,24.07
2018-06-30T11:39:46.069Z,24.15
2018-06-30T11:40:52.059Z,24.23
2018-06-30T11:41:58.120Z,24.28
2018-06-30T11:43:04.126Z,24.32
2018-06-30T11:44:10.125Z,24.38
2018-06-30T11:45:16.074Z,24.35
2018-06-30T11:46:22.288Z,24.38
2018-06-30T11:47:28.271Z,24.41
2018-06-30T11:48:34.238Z,24.43
2018-06-30T11:49:40.231Z,24.44
2018-06-30T11:50:46.159Z,24.43
2018-06-30T11:51:52.135Z,24.41
2018-06-30T11:52:58.083Z,24.37
2018-06-30T11:54:04.197Z,24.36
2018-06-30T11:55:10.189Z,24.39
2018-06-30T11:56:16.180Z,24.42
2018-06-30T11:57:22.143Z,24.46
2018-06-30T11:58:28.130Z,24.43
2018-06-30T11:59:34.051Z,24.41
2018-06-30T12:00:40.128Z,24.42
2018-06-30T12:01:46.079Z,24.35
2018-06-30T12:02:52.222Z,24.36
2018-06-30T12:03:58.173Z,24.34
2018-06-30T12:05:04.539Z,24.32
2018-06-30T12:06:10.558Z,24.30
2018-06-30T12:07:16.241Z,24.32
2018-06-30T12:08:22.103Z,24.27
2018-06-30T12:09:28.096Z,24.23
2018-06-30T12:10:34.031Z,24.17
2018-06-30T12:11:40.161Z,24.12
2018-06-30T12:12:45.998Z,24.14
2018-06-30T12:13:51.999Z,24.21
2018-06-30T12:14:57.918Z,24.27
2018-06-30T12:16:03.551Z,24.28
2018-06-30T12:17:09.428Z,24.31
2018-06-30T12:18:15.371Z,24.31
2018-06-30T12:19:21.324Z,24.33
2018-06-30T12:20:27.349Z,24.29
2018-06-30T12:21:33.005Z,24.32
2018-06-30T12:22:38.912Z,24.32
2018-06-30T12:23:44.987Z,24.34
2018-06-30T12:24:50.903Z,24.32
2018-06-30T12:25:56.829Z,24.27
2018-06-30T12:27:03.055Z,24.21
2018-06-30T12:28:09.216Z,24.23
2018-06-30T12:29:15.149Z,24.22
2018-06-30T12:30:21.252Z,24.15
2018-06-30T12:31:27.355Z,24.11
2018-06-30T12:32:33.687Z,24.09
2018-06-30T12:33:39.654Z,24.01
2018-06-30T12:34:45.771Z,24.12
2018-06-30T12:35:51.752Z,24.21
2018-06-30T12:36:57.742Z,24.26
2018-06-30T12:38:03.715Z,24.32
2018-06-30T12:39:10.648Z,24.39
2018-06-30T12:40:16.837Z,24.39
2018-06-30T12:41:22.431Z,24.42
2018-06-30T12:42:28.013Z,24.49
2018-06-30T12:43:33.852Z,24.52
2018-06-30T12:44:39.796Z,24.52
2018-06-30T12:45:45.780Z,24.55
2018-06-30T12:46:51.732Z,24.54
2018-06-30T12:47:57.670Z,24.33
2018-06-30T12:49:03.819Z,24.34
2018-06-30T12:50:09.663Z,24.35
2018-06-30T12:51:15.640Z,24.39
2018-06-30T12:52:21.612Z,24.45
2018-06-30T12:53:27.551Z,24.49
2018-06-30T12:54:33.741Z,24.49
2018-06-30T12:55:40.082Z,24.32
2018-06-30T12:56:46.079Z,24.28
2018-06-30T12:57:52.175Z,24.29
2018-06-30T12:58:58.135Z,24.30
2018-06-30T13:00:04.685Z,24.33
2018-06-30T13:01:10.098Z,24.35
2018-06-30T13:02:16.004Z,24.39
2018-06-30T13:03:21.966Z,24.36
2018-06-30T13:04:27.957Z,24.29
2018-06-30T13:05:33.933Z,24.19
2018-06-30T13:06:39.889Z,24.29
2018-06-30T13:07:45.955Z,24.39
2018-06-30T13:08:51.897Z,24.45
2018-06-30T13:09:58.138Z,24.49
2018-06-30T13:11:04.111Z,24.38
2018-06-30T13:12:10.111Z,24.28
2018-06-30T13:13:16.057Z,24.22
2018-06-30T13:14:22.186Z,24.16
2018-06-30T13:15:28.203Z,24.20
2018-06-30T13:16:34.487Z,24.30
2018-06-30T13:17:40.445Z,24.42
2018-06-30T13:18:46.632Z,24.49
2018-06-30T13:19:52.355Z,24.50
2018-06-30T13:20:58.331Z,24.53
2018-06-30T13:22:04.532Z,24.59
2018-06-30T13:23:10.155Z,24.55
2018-06-30T13:24:16.215Z,24.57
2018-06-30T13:25:22.195Z,24.56
2018-06-30T13:26:28.151Z,24.58
2018-06-30T13:27:34.255Z,24.65
2018-06-30T13:28:40.599Z,24.68
2018-06-30T13:29:46.756Z,24.61
2018-06-30T13:30:52.362Z,24.57
2018-06-30T13:31:58.226Z,24.52
2018-06-30T13:33:04.206Z,24.53
2018-06-30T13:34:10.669Z,24.56
2018-06-30T13:35:16.704Z,24.50
2018-06-30T13:36:22.699Z,24.55
2018-06-30T13:37:28.663Z,24.57
2018-06-30T13:38:34.982Z,24.62
2018-06-30T13:39:41.103Z,24.58
2018-06-30T13:40:47.072Z,24.56
2018-06-30T13:41:53.446Z,24.62
2018-06-30T13:42:59.472Z,24.63
2018-06-30T13:44:06.527Z,24.66
2018-06-30T13:45:13.037Z,24.73
2018-06-30T13:46:19.484Z,24.73
2018-06-30T13:47:26.011Z,24.81
2018-06-30T13:48:32.023Z,24.84
2018-06-30T13:49:38.018Z,24.82
2018-06-30T13:50:44.149Z,24.74
2018-06-30T13:51:50.134Z,24.83
2018-06-30T13:52:56.151Z,24.85
2018-06-30T13:54:02.182Z,24.84
2018-06-30T13:55:08.285Z,24.89
2018-06-30T13:56:14.350Z,24.96
2018-06-30T13:57:20.347Z,25.00
2018-06-30T13:58:26.362Z,24.99
2018-06-30T13:59:32.382Z,24.97
2018-06-30T14:00:38.375Z,24.97
2018-06-30T14:01:44.349Z,24.92
2018-06-30T14:02:50.326Z,24.91
2018-06-30T14:03:56.659Z,24.90
2018-06-30T14:05:02.619Z,24.94
2018-06-30T14:06:08.956Z,24.92
2018-06-30T14:07:15.073Z,24.97
2018-06-30T14:08:21.531Z,24.91
2018-06-30T14:09:27.512Z,24.93
2018-06-30T14:10:33.859Z,24.98